地図

経路データ

SID SEASON NUMBER BASIN SUBBASIN NAME ISO_TIME NATURE LAT LON WMO_WIND WMO_PRES WMO_AGENCY TRACK_TYPE DIST2LAND LANDFALL IFLAG USA_AGENCY USA_ATCF_ID USA_LAT USA_LON USA_RECORD USA_STATUS USA_WIND USA_PRES USA_SSHS USA_R34_NE USA_R34_SE USA_R34_SW USA_R34_NW USA_R50_NE USA_R50_SE USA_R50_SW USA_R50_NW USA_R64_NE USA_R64_SE USA_R64_SW USA_R64_NW USA_POCI USA_ROCI USA_RMW USA_EYE TOKYO_LAT TOKYO_LON TOKYO_GRADE TOKYO_WIND TOKYO_PRES TOKYO_R50_DIR TOKYO_R50_LONG TOKYO_R50_SHORT TOKYO_R30_DIR TOKYO_R30_LONG TOKYO_R30_SHORT TOKYO_LAND CMA_LAT CMA_LON CMA_CAT CMA_WIND CMA_PRES HKO_LAT HKO_LON HKO_CAT HKO_WIND HKO_PRES NEWDELHI_LAT NEWDELHI_LON NEWDELHI_GRADE NEWDELHI_WIND NEWDELHI_PRES NEWDELHI_CI NEWDELHI_DP NEWDELHI_POCI REUNION_LAT REUNION_LON REUNION_TYPE REUNION_WIND REUNION_PRES REUNION_TNUM REUNION_CI REUNION_RMW REUNION_R34_NE REUNION_R34_SE REUNION_R34_SW REUNION_R34_NW REUNION_R50_NE REUNION_R50_SE REUNION_R50_SW REUNION_R50_NW REUNION_R64_NE REUNION_R64_SE REUNION_R64_SW REUNION_R64_NW BOM_LAT BOM_LON BOM_TYPE BOM_WIND BOM_PRES BOM_TNUM BOM_CI BOM_RMW BOM_R34_NE BOM_R34_SE BOM_R34_SW BOM_R34_NW BOM_R50_NE BOM_R50_SE BOM_R50_SW BOM_R50_NW BOM_R64_NE BOM_R64_SE BOM_R64_SW BOM_R64_NW BOM_ROCI BOM_POCI BOM_EYE BOM_POS_METHOD BOM_PRES_METHOD NADI_LAT NADI_LON NADI_CAT NADI_WIND NADI_PRES WELLINGTON_LAT WELLINGTON_LON WELLINGTON_WIND WELLINGTON_PRES DS824_LAT DS824_LON DS824_STAGE DS824_WIND DS824_PRES TD9636_LAT TD9636_LON TD9636_STAGE TD9636_WIND TD9636_PRES TD9635_LAT TD9635_LON TD9635_WIND TD9635_PRES TD9635_ROCI NEUMANN_LAT NEUMANN_LON NEUMANN_CLASS NEUMANN_WIND NEUMANN_PRES MLC_LAT MLC_LON MLC_CLASS MLC_WIND MLC_PRES USA_GUST BOM_GUST BOM_GUST_PER REUNION_GUST REUNION_GUST_PER USA_SEAHGT USA_SEARAD_NE USA_SEARAD_SE USA_SEARAD_SW USA_SEARAD_NW STORM_SPEED STORM_DIR
1946010S15206 1946 2 SP MM NOT_NAMED 1946-01-10 00:00:00 TS -14.7000 -154.400 main 1921 1910 O________OO___ jtwc_sh SH051946 -14.7000 -154.400 -1 -14.7000 205.600 TC -14.7000 -154.400 2 2 242
1946010S15206 1946 2 SP MM NOT_NAMED 1946-01-10 03:00:00 TS -14.7521 -154.501 main 1910 1900 P________PP___ SH051946 -14.7375 -154.488 -1 -14.7375 -154.488 TC -14.7813 -154.528 2 2 240
1946010S15206 1946 2 SP MM NOT_NAMED 1946-01-10 06:00:00 TS -14.8200 -154.618 main 1900 1878 O________OP___ jtwc_sh SH051946 -14.8000 -154.600 -1 -14.8000 205.400 TC -14.8601 -154.655 2 3 237
1946010S15206 1946 2 SP MM NOT_NAMED 1946-01-10 09:00:00 TS -14.9113 -154.760 main 1878 1868 P________PP___ SH051946 -14.9000 -154.750 -1 -14.9000 -154.750 TC -14.9338 -154.779 2 3 237
1946010S15206 1946 2 SP MM NOT_NAMED 1946-01-10 12:00:00 TS -15.0000 -154.900 main 1868 1857 O________OO___ jtwc_sh SH051946 -15.0000 -154.900 -1 -15.0000 205.100 TC -15.0000 -154.900 2 3 239
1946010S15206 1946 2 SP MM NOT_NAMED 1946-01-10 15:00:00 TS -15.0529 -155.006 main 1858 1847 P________PP___ SH051946 -15.0500 -155.000 -1 -15.0500 -155.000 TC -15.0587 -155.017 2 2 242
1946010S15206 1946 2 SP MM NOT_NAMED 1946-01-10 18:00:00 TS -15.1066 -155.112 main 1847 1836 O________OP___ jtwc_sh SH051946 -15.1000 -155.100 -1 -15.1000 204.900 TC -15.1199 -155.135 2 3 240
1946010S15206 1946 2 SP MM NOT_NAMED 1946-01-10 21:00:00 TS -15.1887 -155.249 main 1837 1816 P________PP___ SH051946 -15.1850 -155.243 -1 -15.1850 -155.243 TC -15.1962 -155.261 2 3 235
1946010S15206 1946 2 SP MM NOT_NAMED 1946-01-11 00:00:00 TS -15.3000 -155.400 main 1816 1806 O________OO___ jtwc_sh SH051946 -15.3000 -155.400 -1 -15.3000 204.600 TC -15.3000 -155.400 2 4 229
1946010S15206 1946 2 SP MM NOT_NAMED 1946-01-11 03:00:00 TS -15.4415 -155.550 main 1806 1786 P________PP___ SH051946 -15.4350 -155.543 -1 -15.4350 -155.543 TC -15.4544 -155.565 2 4 224
1946010S15206 1946 2 SP MM NOT_NAMED 1946-01-11 06:00:00 TS -15.6117 -155.714 main 1786 1766 O________OP___ jtwc_sh SH051946 -15.6000 -155.700 -1 -15.6000 204.300 TC -15.6350 -155.742 2 5 223
1946010S15206 1946 2 SP MM NOT_NAMED 1946-01-11 09:00:00 TS -15.8127 -155.908 main 1766 1747 P________PP___ SH051946 -15.8075 -155.900 -1 -15.8075 -155.900 TC -15.8232 -155.924 2 5 224
1946010S15206 1946 2 SP MM NOT_NAMED 1946-01-11 12:00:00 TS -16.0000 -156.100 main 1747 1737 O________OO___ jtwc_sh SH051946 -16.0000 -156.100 -1 -16.0000 203.900 TC -16.0000 -156.100 2 5 228
1946010S15206 1946 2 SP MM NOT_NAMED 1946-01-11 15:00:00 TS -16.1167 -156.256 main 1727 1718 P________PP___ SH051946 -16.1075 -156.258 -1 -16.1075 -156.258 TC -16.1352 -156.253 2 4 233
1946010S15206 1946 2 SP MM NOT_NAMED 1946-01-11 18:00:00 TS -16.2191 -156.400 main 1718 1709 O________OP___ jtwc_sh SH051946 -16.2000 -156.400 -1 -16.2000 203.600 TC -16.2574 -156.400 2 4 230
1946010S15206 1946 2 SP MM NOT_NAMED 1946-01-11 21:00:00 TS -16.3536 -156.544 main 1710 1691 P________PP___ SH051946 -16.3425 -156.543 -1 -16.3425 -156.543 TC -16.3759 -156.547 2 4 226
1946010S15206 1946 2 SP MM NOT_NAMED 1946-01-12 00:00:00 TS -16.5000 -156.700 main 1691 1671 O________OO___ jtwc_sh SH051946 -16.5000 -156.700 -1 -16.5000 203.300 TC -16.5000 -156.700 2 4 229
1946010S15206 1946 2 SP MM NOT_NAMED 1946-01-12 03:00:00 TS -16.6476 -156.891 main 1671 1654 P________PP___ SH051946 -16.6500 -156.900 -1 -16.6500 -156.900 TC -16.6428 -156.872 2 5 231
1946010S15206 1946 2 SP MM NOT_NAMED 1946-01-12 06:00:00 TS -16.7975 -157.083 main 1654 1645 O________OP___ jtwc_sh SH051946 -16.8000 -157.100 -1 -16.8000 202.900 TC -16.7925 -157.050 2 5 229
1946010S15206 1946 2 SP MM NOT_NAMED 1946-01-12 09:00:00 TS -16.9486 -157.248 main 1645 1628 P________PP___ SH051946 -16.9500 -157.258 -1 -16.9500 -157.258 TC -16.9459 -157.228 2 4 225
1946010S15206 1946 2 SP MM NOT_NAMED 1946-01-12 12:00:00 TS -17.1000 -157.400 main 1628 1620 O________OO___ jtwc_sh SH051946 -17.1000 -157.400 -1 -17.1000 202.600 TC -17.1000 -157.400 2 4 224
1946010S15206 1946 2 SP MM NOT_NAMED 1946-01-12 15:00:00 TS -17.2500 -157.552 main 1610 1601 P________PP___ SH051946 -17.2500 -157.550 -1 -17.2500 -157.550 TC -17.2499 -157.557 2 4 224
1946010S15206 1946 2 SP MM NOT_NAMED 1946-01-12 18:00:00 TS -17.4000 -157.703 main 1604 1593 O________OP___ jtwc_sh SH051946 -17.4000 -157.700 -1 -17.4000 202.300 TC -17.3999 -157.708 2 4 223
1946010S15206 1946 2 SP MM NOT_NAMED 1946-01-12 21:00:00 TS -17.5500 -157.851 main 1586 1578 P________PP___ SH051946 -17.5500 -157.850 -1 -17.5500 -157.850 TC -17.5499 -157.854 2 4 223
1946010S15206 1946 2 SP MM NOT_NAMED 1946-01-13 00:00:00 TS -17.7000 -158.000 main 1581 1573 O________OO___ jtwc_sh SH051946 -17.7000 -158.000 -1 -17.7000 202.000 TC -17.7000 -158.000 2 4 223
1946010S15206 1946 2 SP MM NOT_NAMED 1946-01-13 03:00:00 TS -17.8513 -158.151 main 1566 1558 P________PP___ SH051946 -17.8500 -158.150 -1 -17.8500 -158.150 TC -17.8540 -158.154 2 4 223
1946010S15206 1946 2 SP MM NOT_NAMED 1946-01-13 06:00:00 TS -18.0025 -158.303 main 1558 1551 O________OP___ jtwc_sh SH051946 -18.0000 -158.300 -1 -18.0000 201.700 TC -18.0075 -158.308 2 4 224
1946010S15206 1946 2 SP MM NOT_NAMED 1946-01-13 09:00:00 TS -18.1574 -158.457 main 1544 1537 P________PP___ SH051946 -18.1575 -158.458 -1 -18.1575 -158.458 TC -18.1572 -158.457 2 4 224
1946010S15206 1946 2 SP MM NOT_NAMED 1946-01-13 12:00:00 TS -18.3000 -158.600 main 1537 1531 O________OO___ jtwc_sh SH051946 -18.3000 -158.600 -1 -18.3000 201.400 TC -18.3000 -158.600 2 3 223
1946010S15206 1946 2 SP MM NOT_NAMED 1946-01-13 15:00:00 TS -18.4080 -158.708 main 1531 1524 P________PP___ SH051946 -18.4000 -158.700 -1 -18.4000 -158.700 TC -18.4240 -158.724 2 3 223
1946010S15206 1946 2 SP MM NOT_NAMED 1946-01-13 18:00:00 TS -18.5141 -158.814 main 1524 1518 O________OP___ jtwc_sh SH051946 -18.5000 -158.800 -1 -18.5000 201.200 TC -18.5424 -158.843 2 3 223
1946010S15206 1946 2 SP MM NOT_NAMED 1946-01-13 21:00:00 TS -18.6499 -158.950 main 1518 1505 P________PP___ SH051946 -18.6425 -158.943 -1 -18.6425 -158.943 TC -18.6646 -158.965 2 4 223
1946010S15206 1946 2 SP MM NOT_NAMED 1946-01-14 00:00:00 TS -18.8000 -159.100 main 1505 1499 O________OO___ jtwc_sh SH051946 -18.8000 -159.100 -1 -18.8000 200.900 TC -18.8000 -159.100 2 4 223
1946010S15206 1946 2 SP MM NOT_NAMED 1946-01-14 03:00:00 TS -18.9485 -159.247 main 1499 1487 P________PP___ SH051946 -18.9425 -159.243 -1 -18.9425 -159.243 TC -18.9606 -159.257 2 4 223
1946010S15206 1946 2 SP MM NOT_NAMED 1946-01-14 06:00:00 TS -19.1117 -159.409 main 1487 1476 O________OP___ jtwc_sh SH051946 -19.1000 -159.400 -1 -19.1000 200.600 TC -19.1350 -159.428 2 5 223
1946010S15206 1946 2 SP MM NOT_NAMED 1946-01-14 09:00:00 TS -19.3056 -159.598 main 1476 1466 P________PP___ SH051946 -19.3000 -159.592 -1 -19.3000 -159.592 TC -19.3168 -159.610 2 5 223
1946010S15206 1946 2 SP MM NOT_NAMED 1946-01-14 12:00:00 TS -19.5000 -159.800 main 1466 1451 O________OO___ jtwc_sh SH051946 -19.5000 -159.800 -1 -19.5000 200.200 TC -19.5000 -159.800 2 5 227
1946010S15206 1946 2 SP MM NOT_NAMED 1946-01-14 15:00:00 TS -19.6487 -159.984 main 1451 1442 P________PP___ SH051946 -19.6500 -160.000 -1 -19.6500 -160.000 TC -19.6461 -159.953 2 5 230
1946010S15206 1946 2 SP MM NOT_NAMED 1946-01-14 18:00:00 TS -19.7989 -160.173 main 1442 1438 O________OP___ jtwc_sh SH051946 -19.8000 -160.200 -1 -19.8000 199.800 TC -19.7968 -160.119 2 5 227
1946010S15206 1946 2 SP MM NOT_NAMED 1946-01-14 21:00:00 TS -19.9712 -160.355 main 1433 1425 P________PP___ SH051946 -19.9698 -160.370 -1 -19.9698 -160.370 TC -19.9740 -160.325 2 6 225
1946010S15206 1946 2 SP MM NOT_NAMED 1946-01-15 00:00:00 TS -20.2000 -160.600 main 1425 1409 O________OO___ jtwc_sh SH051946 -20.2000 -160.600 -1 -20.2000 199.400 TC -20.2000 -160.600 2 8 226
1946010S15206 1946 2 SP MM NOT_NAMED 1946-01-15 03:00:00 TS -20.5184 -160.969 main 1405 1387 P________PP___ SH051946 -20.5275 -160.955 -1 -20.5275 -160.955 TC -20.5004 -160.998 2 10 228
1946010S15206 1946 2 SP MM NOT_NAMED 1946-01-15 06:00:00 TS -20.8829 -161.420 main 1393 1369 O________OP___ jtwc_sh SH051946 -20.9000 -161.400 -1 -20.9000 198.600 TC -20.8486 -161.461 2 11 231
1946010S15206 1946 2 SP MM NOT_NAMED 1946-01-15 09:00:00 TS -21.2409 -161.920 main 1369 1355 P________PP___ SH051946 -21.2502 -161.907 -1 -21.2502 -161.907 TC -21.2223 -161.945 2 12 232
1946010S15206 1946 2 SP MM NOT_NAMED 1946-01-15 12:00:00 TS -21.6000 -162.400 main 1355 1345 O________OO___ jtwc_sh SH051946 -21.6000 -162.400 -1 -21.6000 197.600 TC -21.6000 -162.400 2 11 229
1946010S15206 1946 2 SP MM NOT_NAMED 1946-01-15 15:00:00 TS -21.9349 -162.788 main 1345 1344 P________PP___ SH051946 -21.9498 -162.780 -1 -21.9498 -162.780 TC -21.9052 -162.802 2 10 225
1946010S15206 1946 2 SP MM NOT_NAMED 1946-01-15 18:00:00 TS -22.2725 -163.121 main 1351 1344 O________OP___ jtwc_sh SH051946 -22.3000 -163.100 -1 -22.3000 196.900 TC -22.2174 -163.163 2 9 222
1946010S15206 1946 2 SP MM NOT_NAMED 1946-01-15 21:00:00 TS -22.5986 -163.443 main 1353 1346 P________PP___ SH051946 -22.6125 -163.430 -1 -22.6125 -163.430 TC -22.5709 -163.467 2 9 216
1946010S15206 1946 2 SP MM NOT_NAMED 1946-01-16 00:00:00 TS -23.0000 -163.700 main 1364 1364 O________OO___ jtwc_sh SH051946 -23.0000 -163.700 -1 -23.0000 196.300 TC -23.0000 -163.700 2 11 204
1946010S15206 1946 2 SP MM NOT_NAMED 1946-01-16 03:00:00 TS -23.5572 -163.896 main 1401 1401 P________PP___ SH051946 -23.5550 -163.895 -1 -23.5550 -163.895 TC -23.5617 -163.899 2 12 193
1946010S15206 1946 2 SP MM NOT_NAMED 1946-01-16 06:00:00 TS -24.1990 -164.007 main 1447 1447 O________OP___ jtwc_sh SH051946 -24.2000 -164.000 -1 -24.2000 196.000 TC -24.1969 -164.021 2 13 186
1946010S15206 1946 2 SP MM NOT_NAMED 1946-01-16 09:00:00 TS -24.8628 -164.044 main 1509 1509 P________PP___ SH051946 -24.8650 -164.038 -1 -24.8650 -164.038 TC -24.8586 -164.058 2 13 0
1946010S15206 1946 2 SP MM NOT_NAMED 1946-01-16 12:00:00 TS -25.5000 -164.000 main 1563 1563 O________OO___ jtwc_sh SH051946 -25.5000 -164.000 -1 -25.5000 196.000 TC -25.5000 -164.000 2 12 176
1946010S15206 1946 2 SP MM NOT_NAMED 1946-01-16 15:00:00 TS -26.0274 -163.943 main 1615 1615 P________PP___ SH051946 -26.0148 -163.959 -1 -26.0148 -163.959 TC -26.0527 -163.911 2 11 169
1946010S15206 1946 2 SP MM NOT_NAMED 1946-01-16 18:00:00 TS -26.5260 -163.774 main 1667 1667 O________OP___ jtwc_sh SH051946 -26.5000 -163.800 -1 -26.5000 196.200 TC -26.5781 -163.723 2 11 157
1946010S15206 1946 2 SP MM NOT_NAMED 1946-01-16 21:00:00 TS -27.0631 -163.462 main 1740 1740 P________PP___ SH051946 -27.0498 -163.482 -1 -27.0498 -163.482 TC -27.0896 -163.423 2 13 147
1946010S15206 1946 2 SP MM NOT_NAMED 1946-01-17 00:00:00 TS -27.6000 -163.000 main 1813 1813 O________OO___ jtwc_sh SH051946 -27.6000 -163.000 -1 -27.6000 197.000 TC -27.6000 -163.000 2 14 138
1946010S15206 1946 2 SP MM NOT_NAMED 1946-01-17 03:00:00 TS -28.1115 -162.411 main 1893 1893 P________PP___ SH051946 -28.1000 -162.395 -1 -28.1000 -162.395 TC -28.1345 -162.445 2 15 132
1946010S15206 1946 2 SP MM NOT_NAMED 1946-01-17 06:00:00 TS -28.6223 -161.724 main 1978 1978 O________OP___ jtwc_sh SH051946 -28.6000 -161.700 -1 -28.6000 198.300 TC -28.6669 -161.772 2 16 131
1946010S15206 1946 2 SP MM NOT_NAMED 1946-01-17 09:00:00 TS -29.1634 -161.012 main 2072 2072 P________PP___ SH051946 -29.1499 -161.000 -1 -29.1499 -161.000 TC -29.1906 -161.038 2 16 131
1946010S15206 1946 2 SP MM NOT_NAMED 1946-01-17 12:00:00 TS -29.7000 -160.300 main 2135 2135 O________OO___ jtwc_sh SH051946 -29.7000 -160.300 -1 -29.7000 199.700 TC -29.7000 -160.300 2 16 131
1946010S15206 1946 2 SP MM NOT_NAMED 1946-01-17 15:00:00 TS -30.2071 -159.630 main 2167 2161 P________PP___ SH051946 -30.2146 -159.642 -1 -30.2146 -159.642 TC -30.1922 -159.605 2 15 131
1946010S15206 1946 2 SP MM NOT_NAMED 1946-01-17 18:00:00 TS -30.6901 -158.983 main 2192 2192 O________OP___ jtwc_sh SH051946 -30.7000 -159.000 -1 -30.7000 201.000 TC -30.6703 -158.950 2 15 130
1946010S15206 1946 2 SP MM NOT_NAMED 1946-01-17 21:00:00 TS -31.1516 -158.343 main 2227 2227 P________PP___ SH051946 -31.1582 -158.354 -1 -31.1582 -158.354 TC -31.1384 -158.320 2 14 130
1946010S15206 1946 2 SP MM NOT_NAMED 1946-01-18 00:00:00 TS -31.6000 -157.700 main 2260 O________OO___ jtwc_sh SH051946 -31.6000 -157.700 -1 -31.6000 202.300 TC -31.6000 -157.700 2 14 129

デジタル台風データ・検索

IBTrACS Databaseについて

本データベースは、米国NOAAが公開する1842年以降の世界の熱帯低気圧のベストトラックデータアーカイブInternational Best Track Archive for Climate Stewardship (IBTrACS)を、ウェブで閲覧しやすい形式に変換したものです。

最終更新日:2021-11-26